INGA4: Red River, Index, AR

Data processed at Tue May 21 2019 23:50


All information presented herein is the property of the government of the United States of America and may be revised or deleted at any time without prior notice.
Dissemination of this information without the expressed written consent of the Public Affairs Office, Tulsa District U.S. Army Corps of Engineers is strictly prohibited.
These data are gathered electronically and, as presented, have not undergone any form of quality control. These data are not guaranteed to be valid or correct.
Go to home page.
Go to station list.
Go to home page.

Upstream stations:

Downstream station:
Previous Day
Next Day
Current Day
    
SHEF ID:       INGA4     Red River at Index, AR
STATION TYPE:  
Regulating: Stage =    19.80, Flow =    99988

               PRECIP     STAGE  RIV-FLOW  WTR-TEMP  BAT-LOAD
                   in        ft       cfs         F      volt
              Ccp-Rev   Ccp-Rev   Ccp-Rev   Ccp-Rev   Ccp-Rev
(US/Central)
05/21 00:00      0.00     14.67     71906     71.60     12.97
05/21 01:00      0.00     14.56     71312     71.60     12.89
05/21 02:00      0.00     14.42     70556     71.60     12.89
05/21 03:00      0.00     14.36     70232     71.60     12.89
05/21 04:00      0.00     14.35     70178     71.60     12.81
05/21 05:00      0.00     14.30     69909     71.60     12.81
05/21 06:00      0.00     14.21     69423     71.60     12.81
05/21 07:00      0.00     14.11     68884     71.60     12.81
05/21 08:00      0.00     14.07     68669     71.60     12.81
05/21 09:00      0.00     14.01     68346     71.60     12.89
05/21 10:00      0.00     13.94     67969     71.60     13.21
05/21 11:00      0.00     13.91     67808     71.78     13.44
05/21 12:00      0.00     13.77     67054     71.96     13.53
05/21 13:00      0.00     13.75     66947     72.32     13.44
05/21 14:00      0.07     13.78     67108     72.32      ----
05/21 15:00      0.02     13.76     67001     72.32     13.13
05/21 16:00      0.00     13.69     66624     72.32     13.05
05/21 17:00      0.09     13.67     66517     72.14     12.97
05/21 18:00      0.13     13.61     66195     71.96     12.97
05/21 19:00      0.07     13.58     66033     71.96     12.89
05/21 20:00      0.00     13.57     65980     71.78     12.97
05/21 21:00      0.00     13.63     66302     71.78     12.89
05/21 22:00      0.00     13.57     65980     71.60     12.89
05/21 23:00      0.00     13.57     65980     71.60     12.81